Time;durP1;ratioP1;P1;durP2;ratioP2;P2;SDS_P1;SDS_P2;PMS_P1;PMS_P2;Temp;Humidity;BMP_temperature;BMP_pressure;BME280_temperature;BME280_humidity;BME280_pressure;Samples;Min_cycle;Max_cycle;Signal;HPM_P1;HPM_P2
2023/09/19 00:00:22;;;;;;;9.27;2.70;;;;;;;16.32;78.87;100441.81;4898962;29;20582;-71
2023/09/19 00:02:59;;;;;;;4.13;2.77;;;;;;;16.28;78.82;100454.03;4898710;29;20609;-72
2023/09/19 00:05:27;;;;;;;5.13;3.00;;;;;;;16.21;78.19;100447.75;4898942;29;20204;-72
2023/09/19 00:07:59;;;;;;;12.47;2.80;;;;;;;16.19;78.10;100452.50;4898860;29;20199;-72
2023/09/19 00:10:26;;;;;;;2.50;2.37;;;;;;;16.25;78.13;100462.50;4898885;29;20272;-71
2023/09/19 00:12:58;;;;;;;5.47;2.73;;;;;;;16.16;77.86;100466.38;4898557;29;20192;-71
2023/09/19 00:15:28;;;;;;;10.10;2.67;;;;;;;16.13;77.65;100464.88;4898744;29;20210;-72
2023/09/19 00:17:56;;;;;;;10.63;2.93;;;;;;;16.09;77.09;100473.56;4897789;29;20197;-72
2023/09/19 00:20:23;;;;;;;6.97;3.10;;;;;;;16.07;76.74;100481.00;4898349;29;20227;-72
2023/09/19 00:22:51;;;;;;;5.20;3.00;;;;;;;16.09;76.59;100473.56;4898950;29;20197;-72
2023/09/19 00:25:18;;;;;;;4.23;2.30;;;;;;;16.07;75.97;100481.00;4898650;29;20248;-71
2023/09/19 00:27:45;;;;;;;12.17;2.53;;;;;;;16.02;76.47;100481.59;4898593;29;20664;-72
2023/09/19 00:30:21;;;;;;;10.40;2.33;;;;;;;15.98;76.18;100481.16;4898421;29;20212;-71
2023/09/19 00:32:49;;;;;;;11.17;2.93;;;;;;;15.99;76.48;100488.22;4897665;29;20290;-71
2023/09/19 00:35:16;;;;;;;7.53;3.63;;;;;;;15.95;76.47;100481.50;4896985;29;20216;-71
2023/09/19 00:37:43;;;;;;;6.83;2.83;;;;;;;15.92;76.24;100483.75;4898781;29;20203;-71
2023/09/19 00:40:15;;;;;;;6.43;2.53;;;;;;;15.94;75.98;100484.41;4897482;29;20216;-71
2023/09/19 00:42:42;;;;;;;4.37;2.57;;;;;;;15.88;76.47;100486.00;4898407;29;20716;-71
2023/09/19 00:45:11;;;;;;;8.17;2.97;;;;;;;15.91;76.14;100490.19;4898157;29;20192;-71
2023/09/19 00:47:49;;;;;;;9.87;2.90;;;;;;;15.85;76.44;100491.78;4896927;29;20610;-71
2023/09/19 00:50:18;;;;;;;7.27;2.63;;;;;;;15.83;76.78;100484.91;4898383;29;20558;-71
2023/09/19 00:52:50;;;;;;;4.30;2.27;;;;;;;15.84;76.79;100487.41;4898120;29;20185;-71
2023/09/19 00:55:19;;;;;;;5.03;2.83;;;;;;;15.89;76.64;100497.63;4898016;29;20295;-72
2023/09/19 00:57:47;;;;;;;5.97;3.27;;;;;;;15.77;77.44;100501.88;4898068;29;20197;-72
2023/09/19 01:00:15;;;;;;;14.83;4.17;;;;;;;15.75;77.78;100506.59;4896749;29;20228;-71
2023/09/19 01:02:43;;;;;;;8.40;2.87;;;;;;;15.76;77.65;100506.41;4897835;29;20207;-71
2023/09/19 01:05:12;;;;;;;6.23;3.27;;;;;;;15.76;77.67;100517.19;4897973;29;20196;-71
2023/09/19 01:07:41;;;;;;;10.40;3.70;;;;;;;15.76;78.01;100516.34;4896747;29;20542;-71
2023/09/19 01:10:14;;;;;;;13.80;3.30;;;;;;;15.74;78.07;100515.72;4897877;29;20220;-70
2023/09/19 01:12:56;;;;;;;7.57;3.97;;;;;;;15.73;78.19;100517.59;4898229;29;20204;-70
2023/09/19 01:15:40;;;;;;;11.87;3.03;;;;;;;15.69;78.45;100528.94;4897847;29;20204;-70
2023/09/19 01:18:07;;;;;;;3.93;2.67;;;;;;;15.66;78.61;100524.75;4898157;29;20233;-70
2023/09/19 01:20:50;;;;;;;4.03;2.93;;;;;;;15.67;78.49;100530.97;4897957;29;20629;-71
2023/09/19 01:23:25;;;;;;;5.00;3.00;;;;;;;15.57;78.66;100527.75;4898391;29;20249;-71
2023/09/19 01:26:22;;;;;;;4.73;2.87;;;;;;;15.58;78.72;100529.41;4898108;29;20173;-71
2023/09/19 01:29:13;;;;;;;12.13;3.17;;;;;;;15.55;78.94;100536.00;4897816;29;20196;-71
2023/09/19 01:31:42;;;;;;;9.60;2.90;;;;;;;15.50;79.03;100533.03;4897998;29;20268;-71
2023/09/19 01:34:09;;;;;;;6.30;3.25;;;;;;;15.56;78.82;100544.94;4897969;29;20271;-71
2023/09/19 01:36:38;;;;;;;12.77;3.57;;;;;;;15.47;78.90;100542.31;4897747;29;20193;-71
2023/09/19 01:39:10;;;;;;;13.30;3.63;;;;;;;15.45;78.96;100538.13;4898207;29;20192;-71
2023/09/19 01:41:46;;;;;;;8.90;3.83;;;;;;;15.48;78.94;100549.38;4897854;29;20220;-71
2023/09/19 01:44:24;;;;;;;9.13;3.50;;;;;;;15.45;79.17;100555.13;4898236;29;20184;-71
2023/09/19 01:46:51;;;;;;;3.93;2.97;;;;;;;15.37;78.98;100552.53;4897668;29;20189;-71
2023/09/19 01:49:46;;;;;;;4.47;3.47;;;;;;;15.39;79.12;100555.91;4898135;29;20189;-71
2023/09/19 01:52:13;;;;;;;8.40;3.50;;;;;;;15.39;79.02;100555.06;4899864;29;20181;-71
2023/09/19 01:54:57;;;;;;;12.60;2.87;;;;;;;15.37;78.98;100552.53;4899714;29;20681;-71
2023/09/19 01:57:36;;;;;;;6.53;2.67;;;;;;;15.36;78.60;100555.44;4901500;29;20187;-71
2023/09/19 02:00:07;;;;;;;3.27;3.07;;;;;;;15.35;78.32;100553.75;4899677;29;20230;-71
2023/09/19 02:02:44;;;;;;;4.23;2.50;;;;;;;15.33;78.06;100551.25;4885151;29;20188;-71
2023/09/19 02:05:12;;;;;;;7.63;3.27;;;;;;;15.34;78.22;100555.59;4901377;29;20188;-71
2023/09/19 02:07:40;;;;;;;6.27;2.63;;;;;;;15.36;77.02;100563.50;4901047;29;20200;-71
2023/09/19 02:10:07;;;;;;;5.27;2.70;;;;;;;15.31;77.41;100557.84;4900850;29;20219;-70
2023/09/19 02:12:35;;;;;;;10.53;3.37;;;;;;;15.27;76.51;100565.47;4900697;29;20193;-71
2023/09/19 02:15:03;;;;;;;10.63;2.90;;;;;;;15.23;77.10;100563.34;4900583;29;20224;-71
2023/09/19 02:17:31;;;;;;;4.10;2.67;;;;;;;15.19;76.66;100573.59;4900886;29;20252;-71
2023/09/19 02:19:58;;;;;;;6.47;2.97;;;;;;;15.16;76.03;100562.38;4900695;29;20268;-71
2023/09/19 02:22:25;;;;;;;11.63;3.43;;;;;;;15.18;76.67;100577.34;4900580;29;20729;-71
2023/09/19 02:24:53;;;;;;;11.57;3.33;;;;;;;15.15;76.44;100569.63;4899276;29;20245;-71
2023/09/19 02:27:20;;;;;;;5.83;3.13;;;;;;;15.15;75.63;100585.78;4900503;29;20188;-71
2023/09/19 02:29:46;;;;;;;8.43;3.00;;;;;;;15.10;75.67;100585.50;4900337;29;20201;-71
2023/09/19 02:32:13;;;;;;;11.70;2.97;;;;;;;15.09;75.92;100594.59;4900365;29;20197;-71
2023/09/19 02:34:39;;;;;;;4.70;2.90;;;;;;;15.06;75.92;100589.59;4900275;29;20197;-71
2023/09/19 02:37:06;;;;;;;6.33;3.00;;;;;;;15.12;75.00;100601.47;4899034;29;20207;-71
2023/09/19 02:39:32;;;;;;;11.70;3.77;;;;;;;15.09;74.87;100586.53;4900620;29;20200;-72
2023/09/19 02:41:59;;;;;;;7.07;3.27;;;;;;;15.07;74.69;100588.56;4900091;29;20200;-72
2023/09/19 02:44:25;;;;;;;4.30;2.73;;;;;;;15.11;74.39;100603.31;4898950;29;20193;-72
2023/09/19 02:46:52;;;;;;;4.13;3.40;;;;;;;15.07;74.92;100599.31;4900081;29;20192;-72
2023/09/19 02:49:19;;;;;;;6.67;2.77;;;;;;;15.04;74.93;100599.69;4900022;29;20196;-72
2023/09/19 02:51:48;;;;;;;7.70;2.70;;;;;;;15.07;75.31;100610.09;4900466;29;20296;-72
2023/09/19 02:54:15;;;;;;;7.77;2.47;;;;;;;15.10;74.80;100615.13;4900232;29;20260;-72
2023/09/19 02:56:42;;;;;;;5.73;3.47;;;;;;;15.06;75.27;100605.75;4900174;29;20212;-72
2023/09/19 02:59:10;;;;;;;8.43;3.83;;;;;;;15.07;75.05;100612.78;4898655;29;20233;-72
2023/09/19 03:01:38;;;;;;;4.00;2.73;;;;;;;14.95;75.62;100611.56;4898572;29;20367;-71
2023/09/19 03:04:06;;;;;;;6.20;2.87;;;;;;;15.05;75.37;100613.00;4897846;29;20642;-71
2023/09/19 03:06:32;;;;;;;7.37;2.63;;;;;;;14.99;75.19;100616.41;4898510;29;20201;-71
2023/09/19 03:08:59;;;;;;;11.03;3.33;;;;;;;15.00;75.27;100617.25;4898442;29;20201;-71
2023/09/19 03:11:26;;;;;;;3.73;2.67;;;;;;;14.99;75.43;100627.16;4898311;29;20240;-71
2023/09/19 03:13:56;;;;;;;3.30;2.50;;;;;;;14.93;75.36;100627.91;4898342;29;20288;-71
2023/09/19 03:16:22;;;;;;;7.53;3.20;;;;;;;14.95;75.91;100620.47;4898267;29;20224;-71
2023/09/19 03:18:52;;;;;;;4.93;3.00;;;;;;;14.96;75.37;100615.94;4883427;29;20196;-71
2023/09/19 03:21:19;;;;;;;3.87;2.60;;;;;;;14.94;75.08;100616.09;4898465;29;20216;-71
2023/09/19 03:23:45;;;;;;;4.73;2.80;;;;;;;14.94;75.45;100612.56;4898227;29;20559;-71
2023/09/19 03:26:14;;;;;;;6.10;2.47;;;;;;;14.87;75.56;100623.25;4898141;29;20228;-71
2023/09/19 03:28:41;;;;;;;13.30;2.67;;;;;;;14.88;75.24;100616.00;4898064;29;20197;-71
2023/09/19 03:31:08;;;;;;;7.20;2.83;;;;;;;14.89;75.06;100617.69;4897968;29;20280;-71
2023/09/19 03:33:36;;;;;;;6.10;3.33;;;;;;;14.80;74.68;100624.16;4899223;29;20189;-71
2023/09/19 03:36:05;;;;;;;5.33;2.87;;;;;;;14.82;75.02;100628.34;4899145;29;20220;-71
2023/09/19 03:38:34;;;;;;;6.00;3.03;;;;;;;14.79;74.86;100630.56;4897925;29;20669;-72
2023/09/19 03:41:01;;;;;;;10.07;2.67;;;;;;;14.80;74.79;100626.84;4897784;29;20220;-72
2023/09/19 03:43:28;;;;;;;6.07;2.67;;;;;;;14.74;74.62;100633.78;4898942;29;20200;-72
2023/09/19 03:45:55;;;;;;;4.07;2.57;;;;;;;14.77;74.92;100636.09;4897771;29;20216;-72
2023/09/19 03:48:22;;;;;;;12.73;2.70;;;;;;;14.73;74.35;100631.25;4898340;29;20288;-71
2023/09/19 03:50:51;;;;;;;13.80;3.20;;;;;;;14.75;74.27;100632.78;4897642;29;20212;-71
2023/09/19 03:53:17;;;;;;;8.03;2.57;;;;;;;14.75;73.91;100635.47;4897618;29;20669;-71
2023/09/19 03:55:45;;;;;;;8.90;3.27;;;;;;;14.69;74.41;100629.94;4898058;29;20220;-71
2023/09/19 03:58:13;;;;;;;10.87;3.23;;;;;;;14.68;73.99;100629.16;4899210;29;20632;-72
2023/09/19 04:00:39;;;;;;;5.67;2.23;;;;;;;14.70;74.19;100632.47;4897863;29;20212;-72
2023/09/19 04:03:06;;;;;;;3.97;2.50;;;;;;;14.72;73.92;100626.94;4898693;29;20244;-72
2023/09/19 04:05:33;;;;;;;10.17;2.63;;;;;;;14.72;74.00;100633.16;4897437;29;20193;-72
2023/09/19 04:08:00;;;;;;;3.27;2.97;;;;;;;14.72;73.96;100625.06;4898642;29;20197;-72
2023/09/19 04:10:26;;;;;;;5.90;2.37;;;;;;;14.73;73.88;100625.88;4898542;29;20208;-72
2023/09/19 04:12:54;;;;;;;8.27;3.27;;;;;;;14.71;74.05;100627.94;4897274;29;20224;-72
2023/09/19 04:15:23;;;;;;;9.43;2.90;;;;;;;14.73;74.08;100625.88;4898926;29;20252;-71
2023/09/19 04:17:52;;;;;;;14.83;3.50;;;;;;;14.71;74.47;100626.09;4897324;29;20275;-71
2023/09/19 04:20:19;;;;;;;12.93;3.20;;;;;;;14.73;74.66;100629.41;4897330;29;20589;-71
2023/09/19 04:22:46;;;;;;;8.80;2.77;;;;;;;14.66;74.95;100633.00;4897097;29;20623;-71
2023/09/19 04:25:13;;;;;;;9.47;3.43;;;;;;;14.53;75.89;100622.84;4897141;29;20204;-71
2023/09/19 04:27:41;;;;;;;26.40;3.80;;;;;;;14.57;75.72;100621.47;4898295;29;20195;-71
2023/09/19 04:30:11;;;;;;;7.80;3.03;;;;;;;14.57;75.79;100627.69;4897038;29;20220;-71
2023/09/19 04:32:41;;;;;;;7.17;3.40;;;;;;;14.65;75.83;100634.88;4898594;29;20629;-71
2023/09/19 04:35:10;;;;;;;10.60;3.07;;;;;;;14.61;75.72;100638.94;4898177;29;20664;-71
2023/09/19 04:37:41;;;;;;;4.10;2.73;;;;;;;14.63;75.81;100631.53;4898233;29;20279;-71
2023/09/19 04:40:12;;;;;;;5.20;3.70;;;;;;;14.66;75.70;100624.94;4898507;29;20250;-70
2023/09/19 04:42:56;;;;;;;8.60;3.73;;;;;;;14.63;75.69;100634.22;4896875;29;20291;-71
2023/09/19 04:45:23;;;;;;;7.27;3.13;;;;;;;14.59;76.05;100633.75;4898456;29;20177;-71
2023/09/19 04:47:49;;;;;;;15.77;4.27;;;;;;;14.56;76.26;100631.41;4898627;29;20196;-71
2023/09/19 04:50:16;;;;;;;6.87;3.27;;;;;;;14.55;76.40;100634.28;4898051;29;20299;-70
2023/09/19 04:52:44;;;;;;;3.77;3.47;;;;;;;14.59;75.97;100624.84;4898090;29;20196;-70
2023/09/19 04:55:17;;;;;;;8.53;2.80;;;;;;;14.57;76.65;100630.38;4898286;29;20248;-70
2023/09/19 04:57:48;;;;;;;5.03;2.83;;;;;;;14.71;76.09;100644.09;4898062;29;20269;-71
2023/09/19 05:00:23;;;;;;;8.83;3.50;;;;;;;14.66;76.18;100644.63;4898260;29;20213;-70
2023/09/19 05:02:56;;;;;;;5.27;2.57;;;;;;;14.60;76.57;100653.41;4898297;29;20180;-71
2023/09/19 05:05:26;;;;;;;8.63;2.63;;;;;;;14.64;76.34;100652.84;4897969;29;20653;-71
2023/09/19 05:07:54;;;;;;;11.67;2.97;;;;;;;14.56;76.77;100665.53;4897942;29;20211;-71
2023/09/19 05:10:21;;;;;;;5.83;2.97;;;;;;;14.59;76.78;100663.34;4897930;29;20642;-70
2023/09/19 05:12:51;;;;;;;7.70;3.47;;;;;;;14.54;77.12;100665.72;4898174;29;20271;-70
2023/09/19 05:15:17;;;;;;;4.77;2.70;;;;;;;14.50;77.79;100677.03;4897765;29;20656;-70
2023/09/19 05:17:54;;;;;;;10.27;3.10;;;;;;;14.55;77.59;100677.34;4897828;29;20193;-71
2023/09/19 05:20:32;;;;;;;10.80;2.73;;;;;;;14.57;77.21;100676.13;4898490;29;20216;-71
2023/09/19 05:23:05;;;;;;;12.73;3.23;;;;;;;14.55;77.66;100688.09;4898412;29;20187;-71
2023/09/19 05:25:32;;;;;;;13.80;2.80;;;;;;;14.64;77.47;100690.53;4898046;29;20185;-70
2023/09/19 05:28:00;;;;;;;9.37;2.87;;;;;;;14.62;77.66;100697.97;4901050;29;20191;-70
2023/09/19 05:30:29;;;;;;;10.47;2.80;;;;;;;14.58;77.97;100701.19;4901595;29;20685;-70
2023/09/19 05:32:56;;;;;;;4.17;2.80;;;;;;;14.63;77.58;100702.34;4901907;29;20192;-70
2023/09/19 05:35:24;;;;;;;4.30;3.10;;;;;;;14.60;77.91;100710.75;4901574;29;20200;-70
2023/09/19 05:37:52;;;;;;;3.43;2.57;;;;;;;14.59;77.60;100711.78;4901498;29;20613;-70
2023/09/19 05:40:18;;;;;;;8.87;2.70;;;;;;;14.57;77.67;100719.19;4901401;29;20208;-70
2023/09/19 05:42:46;;;;;;;24.50;4.87;;;;;;;14.66;77.70;100717.28;4901096;29;20204;-70
2023/09/19 05:45:14;;;;;;;14.13;2.63;;;;;;;14.61;77.56;100717.81;4901160;29;20196;-70
2023/09/19 05:47:45;;;;;;;3.73;3.43;;;;;;;14.66;77.28;100721.81;4901375;29;20230;-71
2023/09/19 05:50:12;;;;;;;10.17;3.43;;;;;;;14.69;77.09;100716.91;4901336;29;20304;-70
2023/09/19 05:52:39;;;;;;;14.80;3.90;;;;;;;14.69;77.14;100730.38;4901315;29;20185;-70
2023/09/19 05:55:07;;;;;;;7.87;3.00;;;;;;;14.63;77.31;100723.00;4900980;29;20181;-71
2023/09/19 05:57:34;;;;;;;9.83;3.07;;;;;;;14.67;77.19;100734.25;4900877;29;20216;-71
2023/09/19 06:00:01;;;;;;;11.07;3.20;;;;;;;14.72;77.08;100731.88;4900838;29;20211;-70
2023/09/19 06:02:37;;;;;;;9.80;2.83;;;;;;;14.78;76.67;100729.28;4900933;29;20666;-71
2023/09/19 06:05:11;;;;;;;17.90;3.23;;;;;;;14.76;76.96;100728.66;4901114;29;20195;-71
2023/09/19 06:07:38;;;;;;;11.83;3.13;;;;;;;14.90;76.50;100727.00;4901372;29;20242;-71
2023/09/19 06:10:08;;;;;;;7.93;2.87;;;;;;;14.82;75.86;100725.22;4901136;29;20247;-70
2023/09/19 06:12:43;;;;;;;12.60;3.17;;;;;;;14.86;76.16;100723.84;4900997;29;20185;-71
2023/09/19 06:15:19;;;;;;;15.93;3.50;;;;;;;14.94;76.06;100715.72;4901261;29;20228;-71
2023/09/19 06:17:50;;;;;;;10.73;3.47;;;;;;;14.90;75.83;100713.56;4900614;29;20565;-71
2023/09/19 06:20:17;;;;;;;18.27;3.57;;;;;;;14.99;75.94;100713.31;4900962;29;20227;-70
2023/09/19 06:22:45;;;;;;;10.63;4.43;;;;;;;15.01;76.04;100723.91;4900815;29;20200;-70
2023/09/19 06:25:19;;;;;;;15.20;4.17;;;;;;;15.03;75.43;100725.41;4900753;29;20200;-70
2023/09/19 06:27:46;;;;;;;5.20;3.07;;;;;;;15.03;75.11;100728.09;4900486;29;20183;-71
2023/09/19 06:30:14;;;;;;;3.40;3.10;;;;;;;15.07;74.91;100720.50;4900362;29;20223;-70
2023/09/19 06:32:44;;;;;;;16.83;3.27;;;;;;;15.12;75.20;100718.09;4900616;29;20197;-71
2023/09/19 06:35:15;;;;;;;2.57;2.40;;;;;;;15.09;74.54;100721.16;4900654;29;20244;-71
2023/09/19 06:37:43;;;;;;;7.50;3.40;;;;;;;15.14;74.39;100718.78;4899611;29;20223;-71
2023/09/19 06:40:14;;;;;;;12.47;3.67;;;;;;;15.14;74.47;100728.69;4900086;29;20224;-70
2023/09/19 06:42:42;;;;;;;10.37;3.37;;;;;;;15.23;74.34;100731.16;4900067;29;20196;-71
2023/09/19 06:45:11;;;;;;;14.13;3.87;;;;;;;15.17;74.70;100728.31;4900410;29;20193;-71
2023/09/19 06:47:38;;;;;;;13.93;3.27;;;;;;;15.14;74.34;100732.22;4900024;29;20201;-71
2023/09/19 06:50:06;;;;;;;11.63;3.17;;;;;;;15.20;74.60;100736.88;4900320;29;20272;-70
2023/09/19 06:52:35;;;;;;;3.20;3.00;;;;;;;15.21;74.12;100743.09;4900012;29;20268;-71
2023/09/19 06:55:03;;;;;;;7.07;3.13;;;;;;;15.26;74.43;100738.00;4900479;29;20200;-71
2023/09/19 06:57:30;;;;;;;21.23;3.40;;;;;;;15.32;74.92;100745.38;4900092;29;20218;-71
2023/09/19 06:59:57;;;;;;;12.90;4.03;;;;;;;15.29;74.78;100741.19;4900061;29;20223;-70
2023/09/19 07:02:23;;;;;;;4.23;3.53;;;;;;;15.30;74.39;100744.72;4899836;29;20197;-70
2023/09/19 07:04:50;;;;;;;8.00;2.80;;;;;;;15.27;74.80;100737.00;4899775;29;20284;-71
2023/09/19 07:07:16;;;;;;;14.77;3.17;;;;;;;15.33;73.94;100747.88;4899745;29;20661;-71
2023/09/19 07:09:43;;;;;;;7.50;4.00;;;;;;;15.33;74.13;100755.97;4899641;29;20188;-71
2023/09/19 07:12:11;;;;;;;6.00;2.90;;;;;;;15.36;74.54;100749.38;4899885;29;20224;-71
2023/09/19 07:14:38;;;;;;;15.80;3.70;;;;;;;15.38;74.91;100750.03;4899639;29;20208;-71
2023/09/19 07:17:04;;;;;;;7.13;4.03;;;;;;;15.39;74.38;100751.72;4899734;29;20641;-71
2023/09/19 07:19:31;;;;;;;7.80;3.00;;;;;;;15.36;74.44;100763.66;4899537;29;20195;-71
2023/09/19 07:21:59;;;;;;;9.07;3.20;;;;;;;15.48;74.81;100758.69;4898333;29;20199;-70
2023/09/19 07:24:27;;;;;;;11.87;3.33;;;;;;;15.43;75.19;100755.72;4899453;29;20193;-70
2023/09/19 07:26:53;;;;;;;10.13;3.67;;;;;;;15.44;75.39;100760.94;4899341;29;20665;-71
2023/09/19 07:29:20;;;;;;;3.43;2.97;;;;;;;15.45;75.50;100759.03;4899870;29;20195;-71
2023/09/19 07:31:47;;;;;;;13.93;2.90;;;;;;;15.49;74.93;100757.66;4899236;29;20276;-71
2023/09/19 07:34:14;;;;;;;7.47;2.80;;;;;;;15.48;74.69;100762.25;4899290;29;20188;-71
2023/09/19 07:36:41;;;;;;;9.93;2.93;;;;;;;15.53;74.55;100756.34;4899090;29;20208;-71
2023/09/19 07:39:08;;;;;;;10.03;2.97;;;;;;;15.53;75.65;100757.16;4899161;29;20196;-71
2023/09/19 07:41:49;;;;;;;10.10;2.30;;;;;;;15.57;74.46;100764.88;4898891;29;20217;-70
2023/09/19 07:44:17;;;;;;;6.97;2.73;;;;;;;15.56;75.52;100760.50;4899550;29;20212;-71
2023/09/19 07:46:44;;;;;;;13.83;2.93;;;;;;;15.54;75.52;100764.22;4898911;29;20193;-71
2023/09/19 07:49:10;;;;;;;7.17;3.10;;;;;;;15.63;75.38;100766.84;4898642;29;20684;-71
2023/09/19 07:51:38;;;;;;;6.43;2.63;;;;;;;15.61;75.99;100758.09;4898844;29;20209;-71
2023/09/19 07:54:05;;;;;;;6.50;2.80;;;;;;;15.69;75.48;100769.66;4898912;29;20323;-71
2023/09/19 07:56:31;;;;;;;11.27;3.40;;;;;;;15.77;76.05;100766.88;4898769;29;20213;-71
2023/09/19 07:58:59;;;;;;;12.87;3.90;;;;;;;15.85;74.85;100774.88;4899038;29;20189;-71
2023/09/19 08:01:27;;;;;;;11.07;3.03;;;;;;;15.83;75.53;100770.66;4899258;29;20227;-71
2023/09/19 08:03:53;;;;;;;11.77;2.90;;;;;;;15.87;74.53;100780.09;4898658;29;20199;-71
2023/09/19 08:06:20;;;;;;;4.43;2.80;;;;;;;15.79;74.63;100777.44;4898983;29;20189;-71
2023/09/19 08:08:47;;;;;;;12.47;2.67;;;;;;;15.81;74.94;100778.13;4898634;29;20228;-71
2023/09/19 08:11:21;;;;;;;6.20;3.13;;;;;;;15.85;74.51;100790.19;4899124;29;20216;-71
2023/09/19 08:13:48;;;;;;;11.13;3.27;;;;;;;15.90;74.30;100785.94;4898570;29;20610;-71
2023/09/19 08:16:17;;;;;;;10.30;3.70;;;;;;;15.92;73.83;100794.66;4898990;29;20213;-71
2023/09/19 08:18:47;;;;;;;7.13;2.33;;;;;;;15.88;74.43;100797.91;4898778;29;20251;-71
2023/09/19 08:21:15;;;;;;;11.20;3.60;;;;;;;15.92;74.72;100797.38;4898665;29;20221;-70
2023/09/19 08:23:44;;;;;;;8.20;2.67;;;;;;;15.86;75.07;100800.81;4898384;29;20189;-71
2023/09/19 08:26:11;;;;;;;9.37;3.60;;;;;;;15.93;74.69;100799.03;4898408;29;20189;-71
2023/09/19 08:28:40;;;;;;;4.07;3.53;;;;;;;15.97;75.19;100810.28;4898371;29;20188;-71
2023/09/19 08:31:08;;;;;;;10.07;3.23;;;;;;;16.06;74.11;100794.88;4898276;29;20292;-71
2023/09/19 08:33:37;;;;;;;11.40;3.73;;;;;;;16.05;74.14;100796.72;4898543;29;20193;-71
2023/09/19 08:36:08;;;;;;;9.90;3.13;;;;;;;15.97;73.73;100802.22;4898469;29;20231;-71
2023/09/19 08:38:35;;;;;;;8.00;3.00;;;;;;;16.04;74.21;100797.75;4898549;29;20181;-71
2023/09/19 08:41:07;;;;;;;10.03;3.10;;;;;;;16.19;75.14;100804.00;4898611;29;20209;-70
2023/09/19 08:43:35;;;;;;;7.97;3.20;;;;;;;16.26;74.97;100799.50;4898076;29;20200;-70
2023/09/19 08:46:11;;;;;;;11.30;2.43;;;;;;;16.41;73.12;100794.97;4898699;29;20216;-71
2023/09/19 08:48:44;;;;;;;16.37;3.40;;;;;;;16.50;72.76;100808.34;4898678;29;20189;-71
2023/09/19 08:51:22;;;;;;;7.47;2.83;;;;;;;16.46;73.45;100803.31;4898823;29;20222;-70
2023/09/19 08:54:03;;;;;;;8.10;3.57;;;;;;;16.53;73.13;100805.25;4898411;29;20268;-71
2023/09/19 08:56:32;;;;;;;7.17;2.13;;;;;;;16.53;72.02;100807.97;4898315;29;20208;-71
2023/09/19 08:59:02;;;;;;;4.60;2.67;;;;;;;16.61;73.35;100800.63;4898398;29;20196;-71
2023/09/19 09:01:32;;;;;;;10.20;3.13;;;;;;;16.67;73.94;100797.19;4899040;29;20231;-71
2023/09/19 09:03:59;;;;;;;8.13;3.10;;;;;;;16.72;71.77;100810.13;4901940;29;20196;-71
2023/09/19 09:06:27;;;;;;;3.87;2.57;;;;;;;16.68;72.52;100803.41;4902427;29;20594;-71
2023/09/19 09:08:55;;;;;;;15.47;3.47;;;;;;;16.69;71.46;100797.81;4901861;29;20196;-71
2023/09/19 09:11:24;;;;;;;18.23;3.30;;;;;;;16.72;71.59;100807.44;4901773;29;20219;-71
2023/09/19 09:13:51;;;;;;;14.13;3.50;;;;;;;16.78;71.17;100799.38;4901996;29;20252;-71
2023/09/19 09:16:18;;;;;;;8.67;3.03;;;;;;;16.77;71.03;100789.59;4901916;29;20199;-71
2023/09/19 09:18:46;;;;;;;11.97;2.93;;;;;;;16.76;70.62;100789.81;4901961;29;20192;-71
2023/09/19 09:21:14;;;;;;;8.83;2.93;;;;;;;16.81;70.68;100790.06;4901677;29;20208;-71
2023/09/19 09:23:41;;;;;;;7.47;2.93;;;;;;;16.95;69.37;100791.88;4901566;29;20192;-71
2023/09/19 09:26:09;;;;;;;10.87;2.97;;;;;;;17.02;69.54;100790.09;4901489;29;20196;-71
2023/09/19 09:28:44;;;;;;;8.27;3.03;;;;;;;17.09;70.81;100787.47;4901796;29;20624;-71
2023/09/19 09:31:26;;;;;;;13.27;3.17;;;;;;;17.20;69.80;100793.19;4901667;29;20216;-71
2023/09/19 09:33:55;;;;;;;6.93;3.20;;;;;;;17.18;68.31;100780.91;4902007;29;20199;-71
2023/09/19 09:36:40;;;;;;;6.37;3.20;;;;;;;17.19;67.53;100791.50;4901264;29;20200;-71
2023/09/19 09:39:18;;;;;;;14.03;2.77;;;;;;;17.19;67.69;100782.56;4901629;29;20272;-71
2023/09/19 09:41:45;;;;;;;10.40;2.73;;;;;;;17.15;67.27;100784.81;4901606;29;20216;-71
2023/09/19 09:44:17;;;;;;;4.93;2.70;;;;;;;17.16;67.62;100789.19;4901747;29;20682;-71
2023/09/19 09:52:16;;;;;;;7.03;2.60;;;;;;;17.26;67.37;100787.03;4901546;29;20192;-71
2023/09/19 09:55:07;;;;;;;12.70;2.47;;;;;;;17.27;66.48;100777.06;4901389;29;20641;-70
2023/09/19 09:57:34;;;;;;;5.10;2.90;;;;;;;17.35;67.41;100787.72;4901692;29;20260;-71
2023/09/19 10:02:40;;;;;;;8.77;2.87;;;;;;;17.44;66.71;100793.84;4900919;29;20177;-71
2023/09/19 10:08:08;;;;;;;6.47;2.93;;;;;;;17.55;67.44;100787.88;4900920;29;20187;-71
2023/09/19 10:13:07;;;;;;;11.37;3.73;;;;;;;17.47;65.98;100790.72;4900617;29;20180;-71
2023/09/19 10:15:36;;;;;;;7.03;2.97;;;;;;;17.51;66.14;100790.16;4900915;29;20193;-71
2023/09/19 10:18:08;;;;;;;15.60;3.23;;;;;;;17.63;65.88;100776.97;4900862;29;20227;-71
2023/09/19 10:20:38;;;;;;;7.63;2.03;;;;;;;17.64;64.80;100768.66;4900767;29;20234;-71
2023/09/19 10:23:13;;;;;;;4.83;2.77;;;;;;;17.65;67.57;100767.59;4900846;29;20199;-71
2023/09/19 10:25:42;;;;;;;9.57;2.80;;;;;;;17.67;65.29;100770.13;4900821;29;20215;-71
2023/09/19 10:28:10;;;;;;;6.33;3.10;;;;;;;17.78;65.63;100766.88;4900458;29;20563;-71
2023/09/19 10:30:48;;;;;;;3.93;3.07;;;;;;;17.87;65.95;100770.25;4900320;29;20212;-71
2023/09/19 10:33:16;;;;;;;7.10;2.80;;;;;;;17.80;64.90;100760.25;4900404;29;20212;-71
2023/09/19 10:35:45;;;;;;;10.07;3.10;;;;;;;17.84;65.87;100766.09;4900613;29;20195;-71
2023/09/19 10:38:21;;;;;;;4.67;2.80;;;;;;;17.84;64.71;100766.09;4900452;29;20220;-71
2023/09/19 10:40:52;;;;;;;12.10;3.90;;;;;;;17.90;64.51;100765.31;4900302;29;20227;-70
2023/09/19 10:43:21;;;;;;;12.17;3.10;;;;;;;17.94;63.11;100757.63;4900051;29;20576;-71
2023/09/19 10:45:52;;;;;;;11.90;3.33;;;;;;;17.91;63.98;100764.25;4900230;29;20661;-70
2023/09/19 10:48:20;;;;;;;3.80;2.30;;;;;;;18.04;62.05;100768.91;4900048;29;20189;-71
2023/09/19 10:50:59;;;;;;;3.77;2.80;;;;;;;18.06;63.14;100751.47;4900032;29;20687;-70
2023/09/19 10:53:29;;;;;;;9.60;2.67;;;;;;;18.10;63.62;100750.03;4900063;29;20215;-71
2023/09/19 10:55:59;;;;;;;3.97;2.40;;;;;;;18.09;62.30;100752.91;4900040;29;20683;-71
2023/09/19 10:58:38;;;;;;;3.20;1.93;;;;;;;18.20;62.38;100745.06;4900249;29;20204;-70
2023/09/19 11:01:06;;;;;;;14.30;2.80;;;;;;;18.32;61.57;100753.47;4900120;29;20227;-71
2023/09/19 11:03:33;;;;;;;10.03;2.60;;;;;;;18.44;61.19;100751.84;4899867;29;20244;-71
2023/09/19 11:06:04;;;;;;;9.53;2.33;;;;;;;18.40;60.52;100757.88;4899802;29;20192;-71
2023/09/19 11:08:51;;;;;;;5.13;3.03;;;;;;;18.32;61.55;100755.34;4899967;29;20185;-71
2023/09/19 11:11:41;;;;;;;4.57;2.43;;;;;;;18.30;61.06;100752.00;4899782;29;20220;-71
2023/09/19 11:14:20;;;;;;;12.40;3.30;;;;;;;18.38;61.56;100751.81;4899832;29;20193;-71
2023/09/19 11:17:04;;;;;;;8.23;2.10;;;;;;;18.48;60.70;100755.00;4899488;29;20668;-71
2023/09/19 11:22:48;;;;;;;7.97;2.70;;;;;;;18.51;59.27;100746.44;4878722;29;20493;-71
2023/09/19 11:25:30;;;;;;;6.03;2.00;;;;;;;18.53;59.85;100760.66;4897006;29;20619;-71
2023/09/19 11:28:14;;;;;;;3.67;2.77;;;;;;;18.60;60.56;100746.13;4899275;29;20658;-71
2023/09/19 11:30:43;;;;;;;2.43;2.17;;;;;;;18.69;61.27;100747.59;4899298;29;20212;-71
2023/09/19 11:33:43;;;;;;;10.20;2.47;;;;;;;18.76;60.85;100753.03;4899805;29;20196;-71
2023/09/19 11:36:19;;;;;;;2.73;2.53;;;;;;;18.65;60.48;100753.63;4899290;29;20248;-71
2023/09/19 11:38:49;;;;;;;8.47;2.83;;;;;;;18.78;59.89;100747.41;4899133;29;20204;-71
2023/09/19 11:43:50;;;;;;;4.53;2.20;;;;;;;18.74;60.95;100746.16;4899072;29;20193;-71
2023/09/19 11:46:21;;;;;;;5.40;2.40;;;;;;;18.73;60.31;100749.91;4899313;29;20196;-70
2023/09/19 11:48:49;;;;;;;11.20;2.43;;;;;;;18.81;60.32;100742.41;4899004;29;20266;-71
2023/09/19 11:51:26;;;;;;;10.13;2.27;;;;;;;18.83;60.44;100748.47;4899128;29;20240;-70
2023/09/19 11:53:56;;;;;;;4.63;2.10;;;;;;;18.73;59.21;100748.03;4899210;29;20208;-71